Hlavní strana
METAR-TAF:

METAR-TAF

Letiště :

Indianapolis, Indiana, Spojené státy americké

zeměpisná šířka: 39-50-37N, zeměpisná délka: 085-53-49W, výška: 263 m

Aktuální stav počasí

Zpráva byla vytvořena před 14 minutami, v 10:55 UTC
Západní vítr 17 kt s nárazy do 21 kt
Teplota -4°C
Vlhkost vzduchu 93%
Tlak 1015 hPa
Viditelnost: 16.1 km
Oblačno až skoro zataženo ve výšce 1600 ft
Zataženo ve výšce 2200 ft

METAR: KMQJ 101055Z AUTO 28017G21KT 10SM BKN016 OVC022 M04/M05 A2998 RMK AO1

Čas: 04:09 (11:09 UTC)


TAF: chybějící

Stav a předpovědi počasí z více než 4 000 letišť (zprávy METAR a TAF).

Červené a žluté tečky na mapě představují dostupné meteorologické stanice.

Když kurzor umístíte na tečku, zobrazí se název stanice.

Pak kliknutím zobrazíte stav a předpověď počasí.

Chcete-li změnit mapu, kliknutím na zelené tlačítko se znaménkem +mapu přiblížíte, kliknutím na zelené tlačítko se znaménkem – mapu oddálíte a kliknutím na zelené šipky přejdete na sousední mapy.


METAR-TAF: